South Platte, Nebraska
Current Conditions -  °F | °C
As of 6:53 PM on Wednesday 22 Oct 2014 (Local Time) from KHSI Reporting Station
Overcast Overcast  
Wind Chill: 62°   Ceiling: 3800
Heat Index: 62°   Visibility: 8mi
Dew Point: 57°   Wind: 0mph
Humidity: 84%   Direction: NA
Pressure: 30.01"   Gusts: NA
Location:  40.7545°N, 98.3738°W
Report Text: KHSI 222353Z AUTO 00000KT 8SM OVC038 17/14 A3001 RMK AO2 SLP158 60041 T01670139 10233 20161 55000
Loading
Personal Weather Stations






























Interactive Weather Map
Tropical Storm Tracking
New forecast layout! Learn more

10-Day Weather Forecast

Advertisements
Track Severe Weather on mobile